createdAt,value
2018-04-30T00:00:25.318Z,12.20
2018-04-30T00:04:28.874Z,11.60
2018-04-30T00:08:32.471Z,14.60
2018-04-30T00:12:35.189Z,11.77
2018-04-30T00:16:37.910Z,13.37
2018-04-30T00:20:40.702Z,13.10
2018-04-30T00:24:43.780Z,12.97
2018-04-30T00:28:47.667Z,11.50
2018-04-30T00:32:51.160Z,13.07
2018-04-30T00:36:53.874Z,12.17
2018-04-30T00:40:57.378Z,13.20
2018-04-30T00:45:00.110Z,12.70
2018-04-30T00:49:02.842Z,12.60
2018-04-30T00:53:05.652Z,13.23
2018-04-30T00:57:08.502Z,13.43
2018-04-30T01:01:12.196Z,14.00
2018-04-30T01:05:14.994Z,12.13
2018-04-30T01:09:17.787Z,11.90
2018-04-30T01:13:21.308Z,13.10
2018-04-30T01:17:28.618Z,13.17
2018-04-30T01:21:32.117Z,16.87
2018-04-30T01:25:34.953Z,11.40
2018-04-30T01:29:37.878Z,12.40
2018-04-30T01:33:40.587Z,12.13
2018-04-30T01:37:43.439Z,14.80
2018-04-30T01:41:46.173Z,13.10
2018-04-30T01:45:48.957Z,12.90
2018-04-30T01:49:51.754Z,12.17
2018-04-30T01:53:54.507Z,15.07
2018-04-30T01:57:58.050Z,13.93
2018-04-30T02:02:00.778Z,13.40
2018-04-30T02:06:03.586Z,11.90
2018-04-30T02:10:06.402Z,12.47
2018-04-30T02:14:10.057Z,10.90
2018-04-30T02:18:12.845Z,12.00
2018-04-30T02:22:15.653Z,12.57
2018-04-30T02:26:18.386Z,13.40
2018-04-30T02:30:21.242Z,13.93
2018-04-30T02:34:23.969Z,12.60
2018-04-30T02:38:26.719Z,14.90
2018-04-30T02:42:30.219Z,13.60
2018-04-30T02:46:33.014Z,14.73
2018-04-30T02:50:35.801Z,14.77
2018-04-30T02:54:38.589Z,16.97
2018-04-30T02:58:41.579Z,16.27
2018-04-30T03:02:44.378Z,14.10
2018-04-30T03:06:47.118Z,13.70
2018-04-30T03:10:49.898Z,13.27
2018-04-30T03:14:52.616Z,12.27
2018-04-30T03:18:56.161Z,13.27
2018-04-30T03:22:59.379Z,13.20
2018-04-30T03:27:02.150Z,15.53
2018-04-30T03:31:05.696Z,15.30
2018-04-30T03:35:08.435Z,14.50
2018-04-30T03:39:11.146Z,14.00
2018-04-30T03:43:13.925Z,14.30
2018-04-30T03:47:16.642Z,16.03
2018-04-30T03:51:20.101Z,16.30
2018-04-30T03:55:22.824Z,15.07
2018-04-30T03:59:25.589Z,13.90
2018-04-30T04:03:40.213Z,15.47
2018-04-30T04:07:43.722Z,14.80
2018-04-30T04:11:47.222Z,14.93
2018-04-30T04:15:50.033Z,15.50
2018-04-30T04:19:52.803Z,16.13
2018-04-30T04:23:55.539Z,14.97
2018-04-30T04:27:59.007Z,13.13
2018-04-30T04:32:01.739Z,14.70
2018-04-30T04:36:05.326Z,15.77
2018-04-30T04:40:08.159Z,15.03
2018-04-30T04:44:11.651Z,13.50
2018-04-30T04:48:14.405Z,15.30
2018-04-30T04:52:18.520Z,14.17
2018-04-30T04:56:21.399Z,14.33
2018-04-30T05:00:25.016Z,15.67
2018-04-30T05:04:27.968Z,12.03
2018-04-30T05:08:30.909Z,14.40
2018-04-30T05:12:33.718Z,15.23
2018-04-30T05:16:37.473Z,13.17
2018-04-30T05:20:40.366Z,15.50
2018-04-30T05:24:43.426Z,15.77
2018-04-30T05:28:46.364Z,13.80
2018-04-30T05:32:49.291Z,13.90
2018-04-30T05:36:52.142Z,13.70
2018-04-30T05:40:55.483Z,19.20
2018-04-30T05:44:58.209Z,15.07
2018-04-30T05:49:00.979Z,12.80
2018-04-30T05:53:03.895Z,14.00
2018-04-30T05:57:06.727Z,13.27
2018-04-30T06:01:09.589Z,13.90
2018-04-30T06:05:12.408Z,11.73
2018-04-30T06:09:15.181Z,12.43
2018-04-30T06:13:17.923Z,11.40
2018-04-30T06:17:20.652Z,13.48
2018-04-30T06:21:23.397Z,42.60
2018-04-30T06:25:27.017Z,36.27
2018-04-30T06:29:29.738Z,17.87
2018-04-30T06:33:32.472Z,32.60
2018-04-30T06:37:36.428Z,25.00
2018-04-30T06:41:39.149Z,15.20
2018-04-30T06:45:41.873Z,11.57
2018-04-30T06:49:45.547Z,52.33
2018-04-30T06:53:48.305Z,8.05
2018-04-30T06:57:51.211Z,8.50
2018-04-30T07:01:54.054Z,8.63
2018-04-30T07:05:57.602Z,9.50
2018-04-30T07:10:02.022Z,9.97
2018-04-30T07:14:05.526Z,9.37
2018-04-30T07:18:09.065Z,12.43
2018-04-30T07:22:11.842Z,10.27
2018-04-30T07:26:15.382Z,9.47
2018-04-30T07:30:22.174Z,8.30
2018-04-30T07:34:25.008Z,8.90
2018-04-30T07:38:27.807Z,9.07
2018-04-30T07:42:30.817Z,8.87
2018-04-30T07:46:33.607Z,9.10
2018-04-30T07:50:36.488Z,9.10
2018-04-30T07:54:40.220Z,8.77
2018-04-30T07:58:43.027Z,9.47
2018-04-30T08:02:45.788Z,8.23
2018-04-30T08:06:48.512Z,8.90
2018-04-30T08:10:51.252Z,7.40
2018-04-30T08:14:54.770Z,13.27
2018-04-30T08:18:57.539Z,7.47
2018-04-30T08:23:00.294Z,9.20
2018-04-30T08:27:03.046Z,5.90
2018-04-30T08:31:05.847Z,7.50
2018-04-30T08:35:08.592Z,6.90
2018-04-30T08:39:11.319Z,7.60
2018-04-30T08:43:14.020Z,6.70
2018-04-30T08:47:16.764Z,6.77
2018-04-30T08:51:20.413Z,6.20
2018-04-30T08:55:23.461Z,6.20
2018-04-30T08:59:26.181Z,7.60
2018-04-30T09:03:29.097Z,6.50
2018-04-30T09:07:33.090Z,6.20
2018-04-30T09:11:36.476Z,6.57
2018-04-30T09:15:39.265Z,5.90
2018-04-30T09:19:42.129Z,6.90
2018-04-30T09:23:44.919Z,6.63
2018-04-30T09:27:52.201Z,6.33
2018-04-30T09:31:56.789Z,5.53
2018-04-30T09:35:59.597Z,5.90
2018-04-30T09:40:02.354Z,5.47
2018-04-30T09:44:05.108Z,5.30
2018-04-30T09:48:07.861Z,4.97
2018-04-30T09:52:10.605Z,5.60
2018-04-30T09:56:13.347Z,6.80
2018-04-30T10:00:16.127Z,6.30
2018-04-30T10:04:19.640Z,5.90
2018-04-30T10:08:23.150Z,7.63
2018-04-30T10:12:26.706Z,5.90
2018-04-30T10:16:36.852Z,5.87
2018-04-30T10:20:42.608Z,5.93
2018-04-30T10:24:53.707Z,5.90
2018-04-30T10:28:56.477Z,5.70
2018-04-30T10:32:59.510Z,5.40
2018-04-30T10:37:02.545Z,5.07
2018-04-30T10:41:05.337Z,5.50
2018-04-30T10:45:08.134Z,5.80
2018-04-30T10:49:10.928Z,5.83
2018-04-30T10:53:13.955Z,5.77
2018-04-30T10:57:16.939Z,7.47
2018-04-30T11:01:19.661Z,5.53
2018-04-30T11:05:22.516Z,5.20
2018-04-30T11:09:25.265Z,5.27
2018-04-30T11:13:28.096Z,4.77
2018-04-30T11:17:30.963Z,5.17
2018-04-30T11:21:33.718Z,5.30
2018-04-30T11:25:36.544Z,6.17
2018-04-30T11:29:39.303Z,5.73
2018-04-30T11:33:45.706Z,4.53
2018-04-30T11:37:49.069Z,5.20
2018-04-30T11:41:55.880Z,4.93
2018-04-30T11:46:02.703Z,4.10
2018-04-30T11:50:05.438Z,4.60
2018-04-30T11:54:09.957Z,4.20
2018-04-30T11:58:13.675Z,4.43
2018-04-30T12:02:17.189Z,4.47
2018-04-30T12:06:24.893Z,4.40
2018-04-30T12:10:27.637Z,4.80
2018-04-30T12:14:31.476Z,4.50
2018-04-30T12:18:34.655Z,4.20
2018-04-30T12:22:38.641Z,4.40
2018-04-30T12:26:53.783Z,4.10
2018-04-30T12:30:57.218Z,3.63
2018-04-30T12:35:00.033Z,4.40
2018-04-30T12:39:03.021Z,4.10
2018-04-30T12:43:06.484Z,4.80
2018-04-30T12:47:09.329Z,3.97
2018-04-30T12:51:12.109Z,3.53
2018-04-30T12:55:19.582Z,3.07
2018-04-30T12:59:22.335Z,3.73
2018-04-30T13:03:30.361Z,3.47
2018-04-30T13:07:38.399Z,3.23
2018-04-30T13:11:45.479Z,3.00
2018-04-30T13:15:49.260Z,3.47
2018-04-30T13:19:52.829Z,3.30
2018-04-30T13:23:56.344Z,3.10
2018-04-30T13:27:59.896Z,3.50
2018-04-30T13:32:02.687Z,2.80
2018-04-30T13:36:05.538Z,4.07
2018-04-30T13:40:08.378Z,2.90
2018-04-30T13:44:11.193Z,3.63
2018-04-30T13:48:14.074Z,3.30
2018-04-30T13:52:16.980Z,3.53
2018-04-30T13:56:19.824Z,2.43
2018-04-30T14:00:23.408Z,2.80
2018-04-30T14:04:26.464Z,3.47
2018-04-30T14:08:30.458Z,3.10
2018-04-30T14:12:33.227Z,3.67
2018-04-30T14:16:35.977Z,3.47
2018-04-30T14:20:38.937Z,3.10
2018-04-30T14:24:41.692Z,3.17
2018-04-30T14:28:45.322Z,3.20
2018-04-30T14:32:48.851Z,3.37
2018-04-30T14:36:51.595Z,3.23
2018-04-30T14:40:54.507Z,3.17
2018-04-30T14:44:57.273Z,4.07
2018-04-30T14:49:00.152Z,3.30
2018-04-30T14:53:02.905Z,3.30
2018-04-30T14:57:05.707Z,2.70
2018-04-30T15:01:09.697Z,3.53
2018-04-30T15:05:12.481Z,3.20
2018-04-30T15:09:15.407Z,2.60
2018-04-30T15:13:18.224Z,2.90
2018-04-30T15:17:21.004Z,3.00
2018-04-30T15:21:23.834Z,2.80
2018-04-30T15:25:26.846Z,3.53
2018-04-30T15:29:32.756Z,3.37
2018-04-30T15:33:41.122Z,2.93
2018-04-30T15:37:48.796Z,2.63
2018-04-30T15:41:55.943Z,2.43
2018-04-30T15:46:01.422Z,2.53
2018-04-30T15:50:08.393Z,3.70
2018-04-30T15:54:15.521Z,2.60
2018-04-30T15:58:20.674Z,2.50
2018-04-30T16:02:27.130Z,2.90
2018-04-30T16:06:32.897Z,2.53
2018-04-30T16:10:39.035Z,2.30
2018-04-30T16:14:45.956Z,2.40
2018-04-30T16:18:51.582Z,2.20
2018-04-30T16:22:58.182Z,2.80
2018-04-30T16:27:04.854Z,2.67
2018-04-30T16:31:07.681Z,2.60
2018-04-30T16:35:11.177Z,2.97
2018-04-30T16:39:14.656Z,2.40
2018-04-30T16:43:17.390Z,2.77
2018-04-30T16:47:20.885Z,2.37
2018-04-30T16:51:24.561Z,2.10
2018-04-30T16:55:27.290Z,2.53
2018-04-30T16:59:32.793Z,1.83
2018-04-30T17:03:35.648Z,2.20
2018-04-30T17:07:38.444Z,3.10
2018-04-30T17:11:41.230Z,2.57
2018-04-30T17:15:44.028Z,2.40
2018-04-30T17:19:46.900Z,1.80
2018-04-30T17:23:50.688Z,2.00
2018-04-30T17:27:54.634Z,2.07
2018-04-30T17:31:59.386Z,1.83
2018-04-30T17:36:02.331Z,1.77
2018-04-30T17:40:05.052Z,1.03
2018-04-30T17:44:07.811Z,1.53
2018-04-30T17:48:10.662Z,2.23
2018-04-30T17:52:13.424Z,1.67
2018-04-30T17:56:16.325Z,2.00
2018-04-30T18:00:19.236Z,1.50
2018-04-30T18:04:22.749Z,1.50
2018-04-30T18:08:26.302Z,1.50
2018-04-30T18:12:29.319Z,1.80
2018-04-30T18:16:32.144Z,1.60
2018-04-30T18:20:34.929Z,2.30
2018-04-30T18:24:37.789Z,1.60
2018-04-30T18:28:40.652Z,1.97
2018-04-30T18:32:43.544Z,1.70
2018-04-30T18:36:46.399Z,2.30
2018-04-30T18:40:49.528Z,1.80
2018-04-30T18:44:53.858Z,1.97
2018-04-30T18:48:56.683Z,2.30
2018-04-30T18:52:59.397Z,1.90
2018-04-30T18:57:03.582Z,2.20
2018-04-30T19:01:06.403Z,2.23
2018-04-30T19:05:09.464Z,2.57
2018-04-30T19:09:12.540Z,2.10
2018-04-30T19:13:15.603Z,2.13
2018-04-30T19:17:18.459Z,2.07
2018-04-30T19:21:21.251Z,2.57
2018-04-30T19:25:24.313Z,2.27
2018-04-30T19:29:27.867Z,2.53
2018-04-30T19:33:31.112Z,2.43
2018-04-30T19:37:35.106Z,2.87
2018-04-30T19:41:37.874Z,2.10
2018-04-30T19:45:41.107Z,2.10
2018-04-30T19:49:43.938Z,2.50
2018-04-30T19:53:46.707Z,2.20
2018-04-30T19:57:49.487Z,2.73
2018-04-30T20:01:53.009Z,2.30
2018-04-30T20:05:56.657Z,2.30
2018-04-30T20:09:59.389Z,2.60
2018-04-30T20:14:02.145Z,2.80
2018-04-30T20:18:06.977Z,2.87
2018-04-30T20:22:09.713Z,2.77
2018-04-30T20:26:12.450Z,2.50
2018-04-30T20:30:15.986Z,3.13
2018-04-30T20:34:18.710Z,4.20
2018-04-30T20:38:21.662Z,2.40
2018-04-30T20:42:24.453Z,3.30
2018-04-30T20:46:27.203Z,2.37
2018-04-30T20:50:30.037Z,3.00
2018-04-30T20:54:32.782Z,3.17
2018-04-30T20:58:35.657Z,3.53
2018-04-30T21:02:38.400Z,2.87
2018-04-30T21:06:41.205Z,2.47
2018-04-30T21:10:44.032Z,2.20
2018-04-30T21:14:46.841Z,2.70
2018-04-30T21:18:49.585Z,2.20
2018-04-30T21:22:52.368Z,2.97
2018-04-30T21:26:55.151Z,2.80
2018-04-30T21:30:58.665Z,2.80
2018-04-30T21:35:02.194Z,2.93
2018-04-30T21:39:05.453Z,2.50
2018-04-30T21:43:08.213Z,4.83
2018-04-30T21:47:10.976Z,3.00
2018-04-30T21:51:14.499Z,2.80
2018-04-30T21:55:18.066Z,2.33
2018-04-30T21:59:21.065Z,2.80
2018-04-30T22:03:23.845Z,2.60
2018-04-30T22:07:26.573Z,2.77
2018-04-30T22:11:29.459Z,2.33
2018-04-30T22:15:33.036Z,3.50
2018-04-30T22:19:35.839Z,3.23
2018-04-30T22:23:38.563Z,3.00
2018-04-30T22:27:41.490Z,3.30
2018-04-30T22:31:44.266Z,2.50
2018-04-30T22:35:46.999Z,3.30
2018-04-30T22:39:49.813Z,2.80
2018-04-30T22:43:53.276Z,2.73
2018-04-30T22:47:56.001Z,2.73
2018-04-30T22:51:58.817Z,2.80
2018-04-30T22:56:02.312Z,2.87
2018-04-30T23:00:05.162Z,3.17
2018-04-30T23:04:08.086Z,2.80
2018-04-30T23:08:10.880Z,3.50
2018-04-30T23:12:13.894Z,2.80
2018-04-30T23:16:16.693Z,3.43
2018-04-30T23:20:19.420Z,4.30
2018-04-30T23:24:22.247Z,2.60
2018-04-30T23:28:24.961Z,3.10
2018-04-30T23:32:27.757Z,2.33
2018-04-30T23:36:30.557Z,3.37
2018-04-30T23:40:33.381Z,2.90
2018-04-30T23:44:36.198Z,3.20
2018-04-30T23:48:38.911Z,2.93
2018-04-30T23:52:42.396Z,3.03
2018-04-30T23:56:45.116Z,2.47
